createdAt,value
2018-05-24T00:02:04.745Z,17.53
2018-05-24T00:04:40.508Z,17.69
2018-05-24T00:07:10.811Z,17.71
2018-05-24T00:09:43.769Z,17.73
2018-05-24T00:12:27.267Z,17.73
2018-05-24T00:14:59.039Z,17.77
2018-05-24T00:17:28.283Z,17.65
2018-05-24T00:20:06.618Z,17.65
2018-05-24T00:25:37.522Z,17.73
2018-05-24T00:28:07.783Z,17.56
2018-05-24T00:30:37.767Z,17.60
2018-05-24T00:33:19.301Z,17.85
2018-05-24T00:35:52.128Z,17.64
2018-05-24T00:38:25.459Z,17.42
2018-05-24T00:40:55.927Z,17.39
2018-05-24T00:43:28.985Z,17.24
2018-05-24T00:46:15.108Z,17.33
2018-05-24T00:48:51.207Z,17.22
2018-05-24T00:51:19.495Z,17.13
2018-05-24T00:53:59.844Z,17.21
2018-05-24T00:56:28.211Z,17.08
2018-05-24T00:58:56.540Z,16.98
2018-05-24T01:01:26.632Z,16.93
2018-05-24T01:03:56.001Z,16.88
2018-05-24T01:06:24.296Z,17.02
2018-05-24T01:08:52.618Z,16.94
2018-05-24T01:11:22.884Z,16.93
2018-05-24T01:13:51.171Z,16.93
2018-05-24T01:16:19.460Z,16.80
2018-05-24T01:18:55.817Z,16.74
2018-05-24T01:21:25.143Z,16.68
2018-05-24T01:23:59.335Z,16.70
2018-05-24T01:26:33.193Z,16.67
2018-05-24T01:29:05.901Z,16.79
2018-05-24T01:31:34.240Z,16.76
2018-05-24T01:34:06.391Z,16.72
2018-05-24T01:36:57.072Z,16.71
2018-05-24T01:39:30.957Z,16.76
2018-05-24T01:42:13.132Z,16.73
2018-05-24T01:45:03.439Z,16.91
2018-05-24T01:47:37.071Z,16.99
2018-05-24T01:50:07.065Z,16.90
2018-05-24T01:52:37.311Z,17.12
2018-05-24T01:55:10.846Z,17.06
2018-05-24T01:57:44.608Z,17.09
2018-05-24T02:00:14.647Z,17.19
2018-05-24T02:02:48.896Z,17.09
2018-05-24T02:05:32.428Z,17.08
2018-05-24T02:08:01.683Z,17.11
2018-05-24T02:10:31.905Z,17.19
2018-05-24T02:13:01.219Z,17.07
2018-05-24T02:15:36.921Z,17.13
2018-05-24T02:18:17.711Z,17.22
2018-05-24T02:20:54.483Z,17.01
2018-05-24T02:23:35.205Z,17.09
2018-05-24T02:26:04.239Z,16.92
2018-05-24T02:28:38.388Z,16.96
2018-05-24T02:31:16.808Z,16.89
2018-05-24T02:33:51.036Z,16.96
2018-05-24T02:36:23.670Z,16.95
2018-05-24T02:38:55.366Z,17.07
2018-05-24T02:41:33.761Z,16.86
2018-05-24T02:44:03.126Z,16.96
2018-05-24T02:46:38.092Z,16.83
2018-05-24T02:49:06.454Z,16.76
2018-05-24T02:51:34.743Z,16.75
2018-05-24T02:54:03.043Z,16.73
2018-05-24T02:56:31.315Z,16.58
2018-05-24T02:59:00.598Z,16.56
2018-05-24T03:01:28.868Z,16.68
2018-05-24T03:03:57.250Z,16.62
2018-05-24T03:06:29.306Z,16.55
2018-05-24T03:09:08.126Z,16.58
2018-05-24T03:11:43.848Z,16.51
2018-05-24T03:14:23.911Z,16.54
2018-05-24T03:16:57.020Z,16.38
2018-05-24T03:19:25.487Z,16.40
2018-05-24T03:21:53.780Z,16.33
2018-05-24T03:24:24.008Z,16.35
2018-05-24T03:26:52.339Z,16.36
2018-05-24T03:29:25.266Z,16.28
2018-05-24T03:31:56.739Z,16.18
2018-05-24T03:34:28.278Z,16.23
2018-05-24T03:36:57.600Z,16.36
2018-05-24T03:39:34.220Z,16.43
2018-05-24T03:42:11.097Z,16.47
2018-05-24T03:44:41.411Z,16.49
2018-05-24T03:47:21.393Z,16.59
2018-05-24T03:49:57.536Z,16.53
2018-05-24T03:52:26.887Z,16.66
2018-05-24T03:55:12.794Z,16.72
2018-05-24T03:57:53.923Z,16.85
2018-05-24T04:00:42.078Z,16.79
2018-05-24T04:03:29.089Z,16.91
2018-05-24T04:05:58.285Z,16.96
2018-05-24T04:08:31.939Z,17.02
2018-05-24T04:11:05.680Z,17.18
2018-05-24T04:13:35.936Z,17.33
2018-05-24T04:16:09.232Z,17.36
2018-05-24T04:18:47.616Z,17.24
2018-05-24T04:21:19.772Z,17.33
2018-05-24T04:23:50.036Z,17.27
2018-05-24T04:26:21.570Z,17.20
2018-05-24T04:28:50.871Z,17.25
2018-05-24T04:31:21.221Z,17.29
2018-05-24T04:33:56.482Z,17.41
2018-05-24T04:36:50.825Z,17.50
2018-05-24T04:39:20.148Z,17.90
2018-05-24T04:41:49.430Z,17.82
2018-05-24T04:44:29.469Z,17.91
2018-05-24T04:46:58.800Z,17.84
2018-05-24T04:49:33.257Z,17.47
2018-05-24T04:52:16.390Z,17.64
2018-05-24T04:54:51.233Z,17.86
2018-05-24T05:00:34.242Z,17.60
2018-05-24T05:03:02.556Z,17.48
2018-05-24T05:05:42.219Z,17.53
2018-05-24T05:08:12.532Z,17.84
2018-05-24T05:10:46.756Z,17.70
2018-05-24T05:13:27.637Z,17.64
2018-05-24T05:16:00.117Z,17.91
2018-05-24T05:18:34.013Z,17.98
2018-05-24T05:21:04.267Z,18.02
2018-05-24T05:23:44.371Z,18.31
2018-05-24T05:26:16.635Z,18.42
2018-05-24T05:28:57.283Z,18.36
2018-05-24T05:31:26.529Z,18.20
2018-05-24T05:34:00.332Z,18.14
2018-05-24T05:36:41.340Z,18.21
2018-05-24T05:39:22.444Z,18.02
2018-05-24T05:41:51.699Z,18.16
2018-05-24T05:44:38.831Z,18.13
2018-05-24T05:47:18.761Z,18.21
2018-05-24T05:49:48.032Z,18.75
2018-05-24T05:52:26.347Z,18.50
2018-05-24T05:54:57.998Z,18.41
2018-05-24T05:57:37.726Z,18.89
2018-05-24T06:00:15.511Z,19.21
2018-05-24T06:03:03.688Z,19.28
2018-05-24T06:05:37.971Z,19.44
2018-05-24T06:08:06.315Z,19.65
2018-05-24T06:10:34.556Z,19.82
2018-05-24T06:13:24.531Z,19.46
2018-05-24T06:16:24.718Z,19.54
2018-05-24T06:18:53.811Z,19.57
2018-05-24T06:21:23.022Z,19.93
2018-05-24T06:24:09.711Z,20.04
2018-05-24T06:26:42.969Z,21.00
2018-05-24T06:29:15.823Z,21.25
2018-05-24T06:31:50.264Z,21.30
2018-05-24T06:34:23.408Z,20.97
2018-05-24T06:36:56.292Z,20.62
2018-05-24T06:39:26.634Z,19.96
2018-05-24T06:41:56.908Z,20.02
2018-05-24T06:44:25.455Z,19.61
2018-05-24T06:46:55.844Z,19.70
2018-05-24T06:49:24.900Z,19.69
2018-05-24T06:51:58.229Z,19.41
2018-05-24T06:54:42.282Z,19.48
2018-05-24T06:57:13.524Z,18.94
2018-05-24T06:59:51.084Z,19.18
2018-05-24T07:02:23.140Z,19.29
2018-05-24T07:04:51.535Z,19.02
2018-05-24T07:07:19.810Z,19.13
2018-05-24T07:09:48.144Z,18.96
2018-05-24T07:12:16.467Z,19.02
2018-05-24T07:14:44.783Z,19.12
2018-05-24T07:17:13.952Z,19.29
2018-05-24T07:19:43.044Z,19.37
2018-05-24T07:22:14.828Z,19.40
2018-05-24T07:24:43.982Z,19.20
2018-05-24T07:27:28.897Z,19.21
2018-05-24T07:30:05.905Z,19.14
2018-05-24T07:32:38.110Z,19.29
2018-05-24T07:35:11.913Z,19.73
2018-05-24T07:37:40.257Z,19.67
2018-05-24T07:40:10.746Z,19.38
2018-05-24T07:42:50.980Z,19.50
2018-05-24T07:45:20.255Z,20.18
2018-05-24T07:47:52.628Z,20.06
2018-05-24T07:50:33.932Z,19.81
2018-05-24T07:53:02.349Z,20.03
2018-05-24T07:55:39.758Z,19.69
2018-05-24T07:58:15.970Z,19.77
2018-05-24T08:00:55.685Z,19.89
2018-05-24T08:03:31.544Z,20.33
2018-05-24T08:06:20.789Z,20.69
2018-05-24T08:08:54.403Z,20.73
2018-05-24T08:11:24.640Z,21.23
2018-05-24T08:13:59.590Z,20.92
2018-05-24T08:16:29.894Z,21.13
2018-05-24T08:19:15.951Z,21.62
2018-05-24T08:21:47.659Z,21.62
2018-05-24T08:24:34.405Z,21.64
2018-05-24T08:27:09.572Z,21.60
2018-05-24T08:29:42.811Z,21.99
2018-05-24T08:32:22.270Z,24.32
2018-05-24T08:35:00.718Z,24.04
2018-05-24T08:37:28.911Z,25.92
2018-05-24T08:39:57.184Z,25.88
2018-05-24T08:42:30.122Z,23.62
2018-05-24T08:45:00.236Z,22.47
2018-05-24T08:47:31.297Z,22.68
2018-05-24T08:50:08.085Z,22.39
2018-05-24T08:52:38.355Z,22.00
2018-05-24T08:55:06.762Z,22.50
2018-05-24T08:57:36.831Z,22.15
2018-05-24T09:00:24.309Z,21.93
2018-05-24T09:02:57.141Z,22.63
2018-05-24T09:05:38.396Z,21.78
2018-05-24T09:08:17.620Z,23.01
2018-05-24T09:10:59.400Z,24.92
2018-05-24T09:13:33.632Z,25.61
2018-05-24T09:16:06.788Z,24.91
2018-05-24T09:18:53.790Z,26.40
2018-05-24T09:21:27.883Z,28.62
2018-05-24T09:24:11.472Z,27.79
2018-05-24T09:26:40.905Z,28.90
2018-05-24T09:29:09.280Z,27.18
2018-05-24T09:31:48.989Z,24.61
2018-05-24T09:34:20.018Z,25.24
2018-05-24T09:36:56.629Z,24.50
2018-05-24T09:42:44.852Z,24.42
2018-05-24T09:45:18.959Z,24.64
2018-05-24T09:47:51.989Z,24.57
2018-05-24T09:50:26.476Z,25.97
2018-05-24T09:52:59.776Z,27.65
2018-05-24T09:55:36.891Z,28.84
2018-05-24T09:58:06.184Z,28.76
2018-05-24T10:00:35.415Z,27.87
2018-05-24T10:03:07.410Z,25.85
2018-05-24T10:05:40.295Z,26.39
2018-05-24T10:08:18.682Z,25.68
2018-05-24T10:10:51.002Z,27.66
2018-05-24T10:13:20.084Z,29.27
2018-05-24T10:15:53.575Z,31.60
2018-05-24T10:18:21.894Z,31.47
2018-05-24T10:20:53.851Z,30.64
2018-05-24T10:23:29.092Z,31.77
2018-05-24T10:26:02.351Z,33.63
2018-05-24T10:28:36.935Z,33.46
2018-05-24T10:31:09.925Z,32.24
2018-05-24T10:33:52.201Z,27.45
2018-05-24T10:36:32.968Z,28.56
2018-05-24T10:39:07.335Z,28.73
2018-05-24T10:41:41.094Z,29.81
2018-05-24T10:44:16.431Z,30.13
2018-05-24T10:46:46.694Z,32.47
2018-05-24T10:49:16.927Z,33.76
2018-05-24T10:51:49.815Z,30.89
2018-05-24T10:54:19.118Z,33.41
2018-05-24T10:56:47.424Z,33.97
2018-05-24T10:59:15.696Z,32.68
2018-05-24T11:01:48.021Z,30.51
2018-05-24T11:04:18.078Z,33.40
2018-05-24T11:06:50.424Z,33.45
2018-05-24T11:09:19.459Z,31.94
2018-05-24T11:11:52.202Z,33.30
2018-05-24T11:14:21.530Z,33.03
2018-05-24T11:16:50.615Z,32.70
2018-05-24T11:19:20.930Z,33.09
2018-05-24T11:21:54.941Z,32.20
2018-05-24T11:24:27.895Z,35.13
2018-05-24T11:27:11.447Z,32.41
2018-05-24T11:29:42.939Z,32.61
2018-05-24T11:32:12.348Z,32.26
2018-05-24T11:34:43.435Z,32.58
2018-05-24T11:37:28.767Z,34.33
2018-05-24T11:40:11.796Z,31.32
2018-05-24T11:42:42.096Z,30.28
2018-05-24T11:45:11.360Z,31.64
2018-05-24T11:47:44.572Z,34.38
2018-05-24T11:50:38.789Z,36.05
2018-05-24T11:53:17.573Z,35.26
2018-05-24T11:55:50.539Z,29.72
2018-05-24T11:58:22.529Z,29.65
2018-05-24T12:00:57.920Z,30.83
2018-05-24T12:03:28.211Z,31.15
2018-05-24T12:06:01.968Z,31.46
2018-05-24T12:08:31.218Z,34.91
2018-05-24T12:11:00.272Z,36.50
2018-05-24T12:13:29.567Z,36.14
2018-05-24T12:15:59.829Z,37.20
2018-05-24T12:18:29.095Z,35.83
2018-05-24T12:20:57.404Z,35.68
2018-05-24T12:23:31.600Z,35.70
2018-05-24T12:26:17.854Z,36.12
2018-05-24T12:28:56.827Z,34.55
2018-05-24T12:31:26.107Z,33.42
2018-05-24T12:33:57.667Z,30.84
2018-05-24T12:36:50.690Z,33.65
2018-05-24T12:39:22.312Z,36.18
2018-05-24T12:41:56.223Z,36.50
2018-05-24T12:44:26.230Z,36.95
2018-05-24T12:47:06.638Z,38.59
2018-05-24T12:49:35.987Z,38.94
2018-05-24T12:52:04.268Z,38.88
2018-05-24T12:54:37.690Z,38.14
2018-05-24T12:57:21.740Z,36.27
2018-05-24T12:59:50.814Z,35.25
2018-05-24T13:02:19.978Z,36.69
2018-05-24T13:04:48.255Z,38.70
2018-05-24T13:07:27.712Z,39.12
2018-05-24T13:10:04.438Z,37.77
2018-05-24T13:12:32.771Z,35.45
2018-05-24T13:15:03.103Z,32.32
2018-05-24T13:17:33.217Z,34.70
2018-05-24T13:20:01.492Z,37.85
2018-05-24T13:22:29.738Z,37.92
2018-05-24T13:25:00.014Z,35.79
2018-05-24T13:27:29.089Z,32.24
2018-05-24T13:29:58.360Z,30.50
2018-05-24T13:32:30.353Z,35.03
2018-05-24T13:34:58.613Z,32.94
2018-05-24T13:37:26.921Z,33.06
2018-05-24T13:39:59.384Z,34.78
2018-05-24T13:42:33.051Z,34.45
2018-05-24T13:45:01.355Z,33.79
2018-05-24T13:47:30.437Z,34.62
2018-05-24T13:49:58.735Z,35.25
2018-05-24T13:52:27.014Z,35.04
2018-05-24T13:54:55.249Z,33.30
2018-05-24T13:57:45.720Z,33.59
2018-05-24T14:00:17.420Z,35.53
2018-05-24T14:03:02.730Z,34.94
2018-05-24T14:05:37.914Z,34.87
2018-05-24T14:08:08.172Z,35.29
2018-05-24T14:10:42.136Z,34.82
2018-05-24T14:13:16.189Z,35.07
2018-05-24T14:15:45.874Z,35.29
2018-05-24T14:18:16.124Z,34.23
2018-05-24T14:20:47.570Z,33.02
2018-05-24T14:23:21.244Z,32.52
2018-05-24T14:25:53.140Z,34.91
2018-05-24T14:28:34.163Z,34.54
2018-05-24T14:31:08.524Z,36.53
2018-05-24T14:33:36.778Z,36.13
2018-05-24T14:36:09.385Z,32.87
2018-05-24T14:38:45.792Z,33.02
2018-05-24T14:41:22.595Z,35.63
2018-05-24T14:44:04.110Z,35.28
2018-05-24T14:46:32.485Z,34.29
2018-05-24T14:49:06.862Z,32.73
2018-05-24T14:51:42.615Z,35.43
2018-05-24T14:54:11.935Z,33.24
2018-05-24T14:56:40.319Z,34.81
2018-05-24T14:59:15.872Z,36.85
2018-05-24T15:01:44.205Z,35.06
2018-05-24T15:04:23.777Z,33.44
2018-05-24T15:06:56.043Z,36.20
2018-05-24T15:09:28.357Z,34.63
2018-05-24T15:11:57.427Z,35.94
2018-05-24T15:14:26.526Z,36.09
2018-05-24T15:16:54.838Z,35.31
2018-05-24T15:19:28.293Z,35.43
2018-05-24T15:22:07.838Z,36.90
2018-05-24T15:24:37.197Z,34.03
2018-05-24T15:27:05.499Z,34.33
2018-05-24T15:29:33.884Z,33.30
2018-05-24T15:32:06.278Z,31.67
2018-05-24T15:34:36.556Z,35.94
2018-05-24T15:37:26.661Z,36.98
2018-05-24T15:39:56.959Z,36.88
2018-05-24T15:42:25.192Z,37.14
2018-05-24T15:45:10.031Z,34.93
2018-05-24T15:47:44.063Z,35.03
2018-05-24T15:50:12.457Z,34.56
2018-05-24T15:52:43.872Z,34.63
2018-05-24T15:55:14.173Z,34.81
2018-05-24T15:57:43.439Z,32.80
2018-05-24T16:00:12.487Z,35.15
2018-05-24T16:02:40.809Z,36.79
2018-05-24T16:05:10.938Z,36.28
2018-05-24T16:07:41.043Z,35.33
2018-05-24T16:10:12.687Z,33.85
2018-05-24T16:12:43.098Z,34.76
2018-05-24T16:15:16.487Z,34.79
2018-05-24T16:17:49.419Z,34.47
2018-05-24T16:20:23.301Z,32.57
2018-05-24T16:22:55.012Z,31.98
2018-05-24T16:25:26.699Z,30.91
2018-05-24T16:28:06.040Z,33.24
2018-05-24T16:30:42.875Z,32.62
2018-05-24T16:33:14.896Z,33.28
2018-05-24T16:35:56.170Z,32.64
2018-05-24T16:38:37.911Z,31.61
2018-05-24T16:41:12.970Z,33.04
2018-05-24T16:43:43.239Z,34.24
2018-05-24T16:46:17.425Z,36.54
2018-05-24T16:49:10.488Z,36.98
2018-05-24T16:51:39.778Z,35.80
2018-05-24T16:54:13.877Z,35.66
2018-05-24T16:56:42.903Z,36.53
2018-05-24T16:59:11.167Z,36.37
2018-05-24T17:01:45.699Z,35.46
2018-05-24T17:04:18.664Z,34.68
2018-05-24T17:06:49.063Z,33.48
2018-05-24T17:09:23.002Z,32.80
2018-05-24T17:12:08.341Z,31.49
2018-05-24T17:14:37.580Z,30.89
2018-05-24T17:17:13.007Z,30.66
2018-05-24T17:19:45.002Z,30.64
2018-05-24T17:22:23.603Z,29.95
2018-05-24T17:25:03.545Z,30.34
2018-05-24T17:27:32.898Z,31.25
2018-05-24T17:30:08.219Z,30.12
2018-05-24T17:32:40.494Z,30.63
2018-05-24T17:35:28.376Z,30.66
2018-05-24T17:38:06.923Z,31.23
2018-05-24T17:40:36.264Z,30.68
2018-05-24T17:43:06.313Z,29.92
2018-05-24T17:45:49.817Z,30.12
2018-05-24T17:48:27.861Z,28.96
2018-05-24T17:51:07.723Z,28.01
2018-05-24T17:53:42.523Z,28.60
2018-05-24T17:56:11.788Z,30.01
2018-05-24T17:58:57.476Z,30.37
2018-05-24T18:01:26.780Z,30.16
2018-05-24T18:04:07.242Z,29.01
2018-05-24T18:06:36.527Z,27.46
2018-05-24T18:09:15.810Z,26.62
2018-05-24T18:11:58.257Z,26.09
2018-05-24T18:14:38.252Z,25.12
2018-05-24T18:17:10.531Z,24.42
2018-05-24T18:19:39.818Z,24.05
2018-05-24T18:22:13.091Z,23.71
2018-05-24T18:24:46.779Z,23.45
2018-05-24T18:27:15.170Z,23.29
2018-05-24T18:29:49.066Z,23.06
2018-05-24T18:32:22.886Z,22.86
2018-05-24T18:35:01.266Z,22.56
2018-05-24T18:37:29.562Z,22.26
2018-05-24T18:40:10.645Z,22.02
2018-05-24T18:42:49.612Z,21.79
2018-05-24T18:45:25.803Z,21.59
2018-05-24T18:47:55.215Z,21.41
2018-05-24T18:50:34.449Z,21.29
2018-05-24T18:53:13.321Z,21.19
2018-05-24T18:55:43.606Z,21.13
2018-05-24T18:58:17.920Z,20.95
2018-05-24T19:00:46.195Z,20.99
2018-05-24T19:03:18.638Z,20.97
2018-05-24T19:05:50.327Z,20.89
2018-05-24T19:08:18.709Z,20.83
2018-05-24T19:10:48.037Z,20.79
2018-05-24T19:13:16.328Z,20.76
2018-05-24T19:15:45.367Z,20.79
2018-05-24T19:18:14.699Z,20.75
2018-05-24T19:20:42.962Z,20.77
2018-05-24T19:23:11.326Z,20.75
2018-05-24T19:25:39.659Z,20.71
2018-05-24T19:28:08.693Z,20.58
2018-05-24T19:30:36.972Z,20.51
2018-05-24T19:33:09.134Z,20.40
2018-05-24T19:35:43.126Z,20.28
2018-05-24T19:38:16.985Z,20.14
2018-05-24T19:40:50.696Z,20.02
2018-05-24T19:43:21.163Z,19.92
2018-05-24T19:45:52.850Z,19.80
2018-05-24T19:48:21.680Z,19.68
2018-05-24T19:50:58.781Z,19.54
2018-05-24T19:53:41.455Z,19.43
2018-05-24T19:56:26.404Z,19.35
2018-05-24T19:59:04.204Z,19.24
2018-05-24T20:01:35.550Z,19.16
2018-05-24T20:04:07.210Z,19.08
2018-05-24T20:06:54.778Z,19.03
2018-05-24T20:09:25.283Z,18.93
2018-05-24T20:11:55.980Z,18.81
2018-05-24T20:14:25.561Z,18.71
2018-05-24T20:16:55.398Z,18.62
2018-05-24T20:19:28.240Z,18.53
2018-05-24T20:22:05.727Z,18.43
2018-05-24T20:24:41.681Z,18.35
2018-05-24T20:27:35.715Z,18.33
2018-05-24T20:30:08.359Z,18.33
2018-05-24T20:32:45.797Z,18.27
2018-05-24T20:35:15.025Z,18.22
2018-05-24T20:37:48.573Z,18.14
2018-05-24T20:40:24.478Z,18.13
2018-05-24T20:43:04.384Z,18.04
2018-05-24T20:45:46.295Z,17.95
2018-05-24T20:48:16.599Z,17.82
2018-05-24T20:50:54.846Z,17.77
2018-05-24T20:53:49.317Z,17.69
2018-05-24T20:56:26.299Z,17.60
2018-05-24T20:59:06.327Z,17.51
2018-05-24T21:01:41.307Z,17.32
2018-05-24T21:04:13.146Z,17.26
2018-05-24T21:06:59.537Z,17.17
2018-05-24T21:09:41.316Z,17.07
2018-05-24T21:12:11.621Z,17.04
2018-05-24T21:14:43.107Z,16.98
2018-05-24T21:17:11.436Z,16.87
2018-05-24T21:19:46.450Z,16.78
2018-05-24T21:22:26.831Z,16.69
2018-05-24T21:25:07.549Z,16.60
2018-05-24T21:27:37.783Z,16.51
2018-05-24T21:30:14.237Z,16.43
2018-05-24T21:32:48.886Z,16.43
2018-05-24T21:35:27.055Z,16.36
2018-05-24T21:38:01.635Z,16.20
2018-05-24T21:40:33.608Z,16.10
2018-05-24T21:43:10.972Z,16.09
2018-05-24T21:45:48.171Z,16.02
2018-05-24T21:48:16.418Z,15.93
2018-05-24T21:50:59.035Z,15.83
2018-05-24T21:53:33.801Z,15.75
2018-05-24T21:56:11.886Z,15.65
2018-05-24T21:58:46.976Z,15.65
2018-05-24T22:01:16.078Z,15.71
2018-05-24T22:03:54.041Z,15.75
2018-05-24T22:06:29.064Z,15.73
2018-05-24T22:08:58.334Z,15.61
2018-05-24T22:11:30.545Z,15.53
2018-05-24T22:14:13.651Z,15.46
2018-05-24T22:16:53.724Z,15.38
2018-05-24T22:19:28.001Z,15.29
2018-05-24T22:21:57.363Z,15.25
2018-05-24T22:24:27.260Z,15.23
2018-05-24T22:26:56.315Z,15.22
2018-05-24T22:29:27.813Z,15.18
2018-05-24T22:32:03.367Z,15.18
2018-05-24T22:34:40.356Z,15.17
2018-05-24T22:37:13.650Z,15.14
2018-05-24T22:39:47.059Z,15.13
2018-05-24T22:42:18.165Z,15.07
2018-05-24T22:44:49.415Z,15.03
2018-05-24T22:47:25.931Z,14.98
2018-05-24T22:49:55.010Z,14.93
2018-05-24T22:52:27.401Z,14.93
2018-05-24T22:55:02.743Z,14.86
2018-05-24T22:57:33.450Z,14.79
2018-05-24T23:00:09.060Z,14.69
2018-05-24T23:02:41.219Z,14.66
2018-05-24T23:05:10.605Z,14.65
2018-05-24T23:07:39.918Z,14.60
2018-05-24T23:10:09.638Z,14.54
2018-05-24T23:12:44.268Z,14.49
2018-05-24T23:15:14.287Z,14.40
2018-05-24T23:17:42.659Z,14.38
2018-05-24T23:20:18.137Z,14.42
2018-05-24T23:22:50.196Z,14.43
2018-05-24T23:25:27.969Z,14.40
2018-05-24T23:28:06.675Z,14.36
2018-05-24T23:30:39.738Z,14.31
2018-05-24T23:33:16.398Z,14.25
2018-05-24T23:35:48.522Z,14.19
2018-05-24T23:38:24.911Z,14.12
2018-05-24T23:40:56.105Z,14.10
2018-05-24T23:43:40.221Z,14.12
2018-05-24T23:46:11.974Z,14.08
2018-05-24T23:48:46.257Z,14.08
2018-05-24T23:51:20.487Z,14.05
2018-05-24T23:53:55.655Z,13.98
2018-05-24T23:56:27.512Z,13.93
2018-05-24T23:59:00.249Z,13.91
